sensor_id;sensor_type;location;lat;lon;timestamp;temperature;humidity
3198;DHT22;1611;49.394;11.136;2023-07-31T00:01:39;15.20;62.30
3198;DHT22;1611;49.394;11.136;2023-07-31T00:04:06;15.20;62.10
3198;DHT22;1611;49.394;11.136;2023-07-31T00:06:33;15.10;62.10
3198;DHT22;1611;49.394;11.136;2023-07-31T00:09:00;15.10;61.90
3198;DHT22;1611;49.394;11.136;2023-07-31T00:11:26;15.10;62.50
3198;DHT22;1611;49.394;11.136;2023-07-31T00:13:54;15.10;62.80
3198;DHT22;1611;49.394;11.136;2023-07-31T00:16:21;15.00;63.10
3198;DHT22;1611;49.394;11.136;2023-07-31T00:18:48;15.00;63.40
3198;DHT22;1611;49.394;11.136;2023-07-31T00:21:15;15.10;63.00
3198;DHT22;1611;49.394;11.136;2023-07-31T00:23:42;15.10;62.90
3198;DHT22;1611;49.394;11.136;2023-07-31T00:26:09;15.10;62.50
3198;DHT22;1611;49.394;11.136;2023-07-31T00:28:35;15.10;61.90
3198;DHT22;1611;49.394;11.136;2023-07-31T00:31:03;15.10;62.30
3198;DHT22;1611;49.394;11.136;2023-07-31T00:33:31;15.10;62.70
3198;DHT22;1611;49.394;11.136;2023-07-31T00:35:58;15.10;63.30
3198;DHT22;1611;49.394;11.136;2023-07-31T00:38:25;15.10;63.00
3198;DHT22;1611;49.394;11.136;2023-07-31T00:40:51;15.10;63.20
3198;DHT22;1611;49.394;11.136;2023-07-31T00:43:18;15.10;63.20
3198;DHT22;1611;49.394;11.136;2023-07-31T00:45:45;15.10;63.30
3198;DHT22;1611;49.394;11.136;2023-07-31T00:48:13;15.10;63.50
3198;DHT22;1611;49.394;11.136;2023-07-31T00:50:40;15.10;63.60
3198;DHT22;1611;49.394;11.136;2023-07-31T00:53:07;15.20;63.20
3198;DHT22;1611;49.394;11.136;2023-07-31T00:55:34;15.20;63.00
3198;DHT22;1611;49.394;11.136;2023-07-31T00:58:01;15.20;62.60
3198;DHT22;1611;49.394;11.136;2023-07-31T01:00:28;15.20;62.30
3198;DHT22;1611;49.394;11.136;2023-07-31T01:02:55;15.20;61.90
3198;DHT22;1611;49.394;11.136;2023-07-31T01:05:28;15.20;61.60
3198;DHT22;1611;49.394;11.136;2023-07-31T01:08:04;15.20;62.80
3198;DHT22;1611;49.394;11.136;2023-07-31T01:10:37;15.20;61.80
3198;DHT22;1611;49.394;11.136;2023-07-31T01:13:05;15.20;61.60
3198;DHT22;1611;49.394;11.136;2023-07-31T01:15:32;15.30;61.20
3198;DHT22;1611;49.394;11.136;2023-07-31T01:17:59;15.30;61.30
3198;DHT22;1611;49.394;11.136;2023-07-31T01:20:28;15.40;61.10
3198;DHT22;1611;49.394;11.136;2023-07-31T01:23:14;15.30;61.30
3198;DHT22;1611;49.394;11.136;2023-07-31T01:26:00;15.40;61.40
3198;DHT22;1611;49.394;11.136;2023-07-31T01:28:35;15.40;60.80
3198;DHT22;1611;49.394;11.136;2023-07-31T01:31:07;15.40;60.70
3198;DHT22;1611;49.394;11.136;2023-07-31T01:33:36;15.50;60.70
3198;DHT22;1611;49.394;11.136;2023-07-31T01:36:04;15.50;60.80
3198;DHT22;1611;49.394;11.136;2023-07-31T01:38:31;15.50;60.50
3198;DHT22;1611;49.394;11.136;2023-07-31T01:40:59;15.50;60.00
3198;DHT22;1611;49.394;11.136;2023-07-31T01:43:26;15.50;60.60
3198;DHT22;1611;49.394;11.136;2023-07-31T01:45:53;15.50;61.50
3198;DHT22;1611;49.394;11.136;2023-07-31T01:48:20;15.50;61.70
3198;DHT22;1611;49.394;11.136;2023-07-31T01:50:46;15.50;61.60
3198;DHT22;1611;49.394;11.136;2023-07-31T01:53:13;15.60;61.40
3198;DHT22;1611;49.394;11.136;2023-07-31T01:55:40;15.60;60.90
3198;DHT22;1611;49.394;11.136;2023-07-31T01:58:09;15.60;61.00
3198;DHT22;1611;49.394;11.136;2023-07-31T02:00:35;15.60;61.00
3198;DHT22;1611;49.394;11.136;2023-07-31T02:03:02;15.60;61.20
3198;DHT22;1611;49.394;11.136;2023-07-31T02:05:29;15.60;60.90
3198;DHT22;1611;49.394;11.136;2023-07-31T02:07:55;15.70;61.00
3198;DHT22;1611;49.394;11.136;2023-07-31T02:10:23;15.60;60.40
3198;DHT22;1611;49.394;11.136;2023-07-31T02:12:50;15.60;60.60
3198;DHT22;1611;49.394;11.136;2023-07-31T02:15:18;15.60;60.00
3198;DHT22;1611;49.394;11.136;2023-07-31T02:17:45;15.60;59.70
3198;DHT22;1611;49.394;11.136;2023-07-31T02:20:11;15.60;59.80
3198;DHT22;1611;49.394;11.136;2023-07-31T02:22:38;15.70;59.50
3198;DHT22;1611;49.394;11.136;2023-07-31T02:25:05;15.70;59.70
3198;DHT22;1611;49.394;11.136;2023-07-31T02:27:32;15.80;58.80
3198;DHT22;1611;49.394;11.136;2023-07-31T02:29:59;15.80;58.60
3198;DHT22;1611;49.394;11.136;2023-07-31T02:32:27;15.80;59.20
3198;DHT22;1611;49.394;11.136;2023-07-31T02:34:53;15.80;58.90
3198;DHT22;1611;49.394;11.136;2023-07-31T02:37:20;15.80;58.50
3198;DHT22;1611;49.394;11.136;2023-07-31T02:39:47;15.80;58.30
3198;DHT22;1611;49.394;11.136;2023-07-31T02:42:14;15.80;57.00
3198;DHT22;1611;49.394;11.136;2023-07-31T02:44:41;15.80;56.90
3198;DHT22;1611;49.394;11.136;2023-07-31T02:47:07;15.90;57.20
3198;DHT22;1611;49.394;11.136;2023-07-31T02:49:36;15.90;58.60
3198;DHT22;1611;49.394;11.136;2023-07-31T02:52:03;15.90;59.10
3198;DHT22;1611;49.394;11.136;2023-07-31T02:54:30;16.00;58.20
3198;DHT22;1611;49.394;11.136;2023-07-31T02:56:56;15.90;57.80
3198;DHT22;1611;49.394;11.136;2023-07-31T02:59:23;16.00;59.10
3198;DHT22;1611;49.394;11.136;2023-07-31T03:01:50;16.00;59.30
3198;DHT22;1611;49.394;11.136;2023-07-31T03:04:17;16.00;57.90
3198;DHT22;1611;49.394;11.136;2023-07-31T03:06:45;16.00;58.90
3198;DHT22;1611;49.394;11.136;2023-07-31T03:09:12;16.00;58.70
3198;DHT22;1611;49.394;11.136;2023-07-31T03:11:39;16.00;59.10
3198;DHT22;1611;49.394;11.136;2023-07-31T03:14:05;15.90;59.20
3198;DHT22;1611;49.394;11.136;2023-07-31T03:16:32;15.90;59.20
3198;DHT22;1611;49.394;11.136;2023-07-31T03:18:59;15.80;59.60
3198;DHT22;1611;49.394;11.136;2023-07-31T03:21:26;15.80;59.70
3198;DHT22;1611;49.394;11.136;2023-07-31T03:23:54;15.80;59.40
3198;DHT22;1611;49.394;11.136;2023-07-31T03:26:20;15.80;57.80
3198;DHT22;1611;49.394;11.136;2023-07-31T03:28:47;15.80;59.00
3198;DHT22;1611;49.394;11.136;2023-07-31T03:31:15;15.80;58.50
3198;DHT22;1611;49.394;11.136;2023-07-31T03:33:41;15.80;59.10
3198;DHT22;1611;49.394;11.136;2023-07-31T03:36:08;15.80;59.30
3198;DHT22;1611;49.394;11.136;2023-07-31T03:38:35;15.80;58.80
3198;DHT22;1611;49.394;11.136;2023-07-31T03:41:03;15.80;59.40
3198;DHT22;1611;49.394;11.136;2023-07-31T03:43:31;15.80;59.20
3198;DHT22;1611;49.394;11.136;2023-07-31T03:45:59;15.80;59.20
3198;DHT22;1611;49.394;11.136;2023-07-31T03:48:26;15.80;59.20
3198;DHT22;1611;49.394;11.136;2023-07-31T03:50:52;15.80;59.50
3198;DHT22;1611;49.394;11.136;2023-07-31T03:53:19;15.90;58.60
3198;DHT22;1611;49.394;11.136;2023-07-31T03:55:46;15.80;59.30
3198;DHT22;1611;49.394;11.136;2023-07-31T03:58:14;15.80;60.00
3198;DHT22;1611;49.394;11.136;2023-07-31T04:00:41;15.80;60.20
3198;DHT22;1611;49.394;11.136;2023-07-31T04:03:08;15.90;60.30
3198;DHT22;1611;49.394;11.136;2023-07-31T04:05:38;15.80;60.30
3198;DHT22;1611;49.394;11.136;2023-07-31T04:08:05;15.70;60.70
3198;DHT22;1611;49.394;11.136;2023-07-31T04:10:32;15.70;60.80
3198;DHT22;1611;49.394;11.136;2023-07-31T04:12:59;15.70;61.10
3198;DHT22;1611;49.394;11.136;2023-07-31T04:15:27;15.70;61.00
3198;DHT22;1611;49.394;11.136;2023-07-31T04:17:53;15.70;61.20
3198;DHT22;1611;49.394;11.136;2023-07-31T04:20:20;15.70;61.80
3198;DHT22;1611;49.394;11.136;2023-07-31T04:22:47;15.70;61.80
3198;DHT22;1611;49.394;11.136;2023-07-31T04:25:14;15.70;61.30
3198;DHT22;1611;49.394;11.136;2023-07-31T04:27:41;15.80;61.00
3198;DHT22;1611;49.394;11.136;2023-07-31T04:30:08;15.70;61.10
3198;DHT22;1611;49.394;11.136;2023-07-31T04:32:36;15.70;61.30
3198;DHT22;1611;49.394;11.136;2023-07-31T04:35:03;15.70;61.50
3198;DHT22;1611;49.394;11.136;2023-07-31T04:37:30;15.60;60.80
3198;DHT22;1611;49.394;11.136;2023-07-31T04:39:57;15.60;61.00
3198;DHT22;1611;49.394;11.136;2023-07-31T04:42:24;15.70;61.00
3198;DHT22;1611;49.394;11.136;2023-07-31T04:44:51;15.60;61.20
3198;DHT22;1611;49.394;11.136;2023-07-31T04:47:18;15.60;62.00
3198;DHT22;1611;49.394;11.136;2023-07-31T04:49:46;15.60;61.90
3198;DHT22;1611;49.394;11.136;2023-07-31T04:52:13;15.70;61.60
3198;DHT22;1611;49.394;11.136;2023-07-31T04:54:40;15.70;61.30
3198;DHT22;1611;49.394;11.136;2023-07-31T04:57:06;15.70;61.10
3198;DHT22;1611;49.394;11.136;2023-07-31T04:59:33;15.70;62.00
3198;DHT22;1611;49.394;11.136;2023-07-31T05:02:00;15.70;61.80
3198;DHT22;1611;49.394;11.136;2023-07-31T05:04:26;15.70;62.00
3198;DHT22;1611;49.394;11.136;2023-07-31T05:06:55;15.80;62.10
3198;DHT22;1611;49.394;11.136;2023-07-31T05:09:21;15.90;62.00
3198;DHT22;1611;49.394;11.136;2023-07-31T05:11:48;16.00;61.70
3198;DHT22;1611;49.394;11.136;2023-07-31T05:14:15;16.10;61.20
3198;DHT22;1611;49.394;11.136;2023-07-31T05:16:42;16.10;60.10
3198;DHT22;1611;49.394;11.136;2023-07-31T05:19:08;16.10;60.10
3198;DHT22;1611;49.394;11.136;2023-07-31T05:21:35;16.30;59.60
3198;DHT22;1611;49.394;11.136;2023-07-31T05:24:04;16.30;59.70
3198;DHT22;1611;49.394;11.136;2023-07-31T05:26:31;16.40;59.90
3198;DHT22;1611;49.394;11.136;2023-07-31T05:28:57;16.40;59.50
3198;DHT22;1611;49.394;11.136;2023-07-31T05:31:24;16.50;60.20
3198;DHT22;1611;49.394;11.136;2023-07-31T05:33:51;16.60;58.30
3198;DHT22;1611;49.394;11.136;2023-07-31T05:36:18;16.70;58.20
3198;DHT22;1611;49.394;11.136;2023-07-31T05:38:44;16.80;58.60
3198;DHT22;1611;49.394;11.136;2023-07-31T05:41:13;16.90;57.90
3198;DHT22;1611;49.394;11.136;2023-07-31T05:43:40;17.00;56.90
3198;DHT22;1611;49.394;11.136;2023-07-31T05:46:06;17.10;57.70
3198;DHT22;1611;49.394;11.136;2023-07-31T05:48:34;17.20;58.20
3198;DHT22;1611;49.394;11.136;2023-07-31T05:51:01;17.20;57.60
3198;DHT22;1611;49.394;11.136;2023-07-31T05:53:28;17.30;56.70
3198;DHT22;1611;49.394;11.136;2023-07-31T05:55:55;17.40;54.60
3198;DHT22;1611;49.394;11.136;2023-07-31T05:58:23;17.50;52.80
3198;DHT22;1611;49.394;11.136;2023-07-31T06:00:50;17.50;52.30
3198;DHT22;1611;49.394;11.136;2023-07-31T06:03:16;17.60;53.20
3198;DHT22;1611;49.394;11.136;2023-07-31T06:05:43;17.70;54.10
3198;DHT22;1611;49.394;11.136;2023-07-31T06:08:10;17.80;54.10
3198;DHT22;1611;49.394;11.136;2023-07-31T06:10:36;17.80;53.90
3198;DHT22;1611;49.394;11.136;2023-07-31T06:13:04;17.90;54.10
3198;DHT22;1611;49.394;11.136;2023-07-31T06:15:32;18.00;50.70
3198;DHT22;1611;49.394;11.136;2023-07-31T06:17:58;18.00;52.60
3198;DHT22;1611;49.394;11.136;2023-07-31T06:20:27;18.10;53.40
3198;DHT22;1611;49.394;11.136;2023-07-31T06:22:54;18.10;53.20
3198;DHT22;1611;49.394;11.136;2023-07-31T06:25:21;18.20;52.90
3198;DHT22;1611;49.394;11.136;2023-07-31T06:27:47;18.20;53.40
3198;DHT22;1611;49.394;11.136;2023-07-31T06:30:14;18.30;53.80
3198;DHT22;1611;49.394;11.136;2023-07-31T06:32:42;18.30;54.50
3198;DHT22;1611;49.394;11.136;2023-07-31T06:35:09;18.40;53.70
3198;DHT22;1611;49.394;11.136;2023-07-31T06:37:36;18.50;52.30
3198;DHT22;1611;49.394;11.136;2023-07-31T06:40:06;18.60;50.90
3198;DHT22;1611;49.394;11.136;2023-07-31T06:42:34;18.70;50.70
3198;DHT22;1611;49.394;11.136;2023-07-31T06:45:01;18.80;50.10
3198;DHT22;1611;49.394;11.136;2023-07-31T06:47:28;18.90;50.30
3198;DHT22;1611;49.394;11.136;2023-07-31T06:49:56;19.00;50.20
3198;DHT22;1611;49.394;11.136;2023-07-31T06:52:23;19.20;49.50
3198;DHT22;1611;49.394;11.136;2023-07-31T06:55:01;19.40;47.10
3198;DHT22;1611;49.394;11.136;2023-07-31T06:57:29;19.40;45.60
3198;DHT22;1611;49.394;11.136;2023-07-31T06:59:55;19.50;46.00
3198;DHT22;1611;49.394;11.136;2023-07-31T07:02:22;19.60;47.50
3198;DHT22;1611;49.394;11.136;2023-07-31T07:04:49;19.70;45.30
3198;DHT22;1611;49.394;11.136;2023-07-31T07:07:18;19.80;44.80
3198;DHT22;1611;49.394;11.136;2023-07-31T07:09:44;19.80;43.60
3198;DHT22;1611;49.394;11.136;2023-07-31T07:12:11;19.80;45.70
3198;DHT22;1611;49.394;11.136;2023-07-31T07:14:38;19.90;43.10
3198;DHT22;1611;49.394;11.136;2023-07-31T07:17:05;20.00;41.70
3198;DHT22;1611;49.394;11.136;2023-07-31T07:19:32;20.20;41.60
3198;DHT22;1611;49.394;11.136;2023-07-31T07:21:59;20.40;41.00
3198;DHT22;1611;49.394;11.136;2023-07-31T07:24:28;20.60;38.10
3198;DHT22;1611;49.394;11.136;2023-07-31T07:26:55;20.70;38.90
3198;DHT22;1611;49.394;11.136;2023-07-31T07:29:22;20.90;38.30
3198;DHT22;1611;49.394;11.136;2023-07-31T07:31:48;21.00;37.60
3198;DHT22;1611;49.394;11.136;2023-07-31T07:34:15;21.10;37.00
3198;DHT22;1611;49.394;11.136;2023-07-31T07:36:42;21.10;35.80
3198;DHT22;1611;49.394;11.136;2023-07-31T07:39:10;21.10;36.80
3198;DHT22;1611;49.394;11.136;2023-07-31T07:41:38;21.10;36.50
3198;DHT22;1611;49.394;11.136;2023-07-31T07:44:04;21.20;36.40
3198;DHT22;1611;49.394;11.136;2023-07-31T07:46:31;21.10;36.20
3198;DHT22;1611;49.394;11.136;2023-07-31T07:48:58;21.20;35.70
3198;DHT22;1611;49.394;11.136;2023-07-31T07:51:25;21.20;37.30
3198;DHT22;1611;49.394;11.136;2023-07-31T07:53:51;21.30;36.70
3198;DHT22;1611;49.394;11.136;2023-07-31T07:56:18;21.30;37.20
3198;DHT22;1611;49.394;11.136;2023-07-31T07:58:48;21.30;37.80
3198;DHT22;1611;49.394;11.136;2023-07-31T08:01:15;21.40;36.00
3198;DHT22;1611;49.394;11.136;2023-07-31T08:03:42;21.40;34.80
3198;DHT22;1611;49.394;11.136;2023-07-31T08:06:09;21.40;34.30
3198;DHT22;1611;49.394;11.136;2023-07-31T08:08:36;21.50;36.20
3198;DHT22;1611;49.394;11.136;2023-07-31T08:11:03;21.70;37.60
3198;DHT22;1611;49.394;11.136;2023-07-31T08:13:30;21.80;34.80
3198;DHT22;1611;49.394;11.136;2023-07-31T08:15:58;22.10;36.90
3198;DHT22;1611;49.394;11.136;2023-07-31T08:18:25;22.20;34.70
3198;DHT22;1611;49.394;11.136;2023-07-31T08:20:51;22.30;32.70
3198;DHT22;1611;49.394;11.136;2023-07-31T08:23:18;22.10;33.80
3198;DHT22;1611;49.394;11.136;2023-07-31T08:25:45;22.10;32.10
3198;DHT22;1611;49.394;11.136;2023-07-31T08:28:15;22.30;32.30
3198;DHT22;1611;49.394;11.136;2023-07-31T08:30:42;22.30;33.10
3198;DHT22;1611;49.394;11.136;2023-07-31T08:33:10;22.10;33.80
3198;DHT22;1611;49.394;11.136;2023-07-31T08:35:37;22.30;33.50
3198;DHT22;1611;49.394;11.136;2023-07-31T08:38:04;22.40;33.30
3198;DHT22;1611;49.394;11.136;2023-07-31T08:40:31;22.50;32.20
3198;DHT22;1611;49.394;11.136;2023-07-31T08:42:59;22.60;31.40
3198;DHT22;1611;49.394;11.136;2023-07-31T08:45:28;22.80;30.70
3198;DHT22;1611;49.394;11.136;2023-07-31T08:47:56;22.60;29.40
3198;DHT22;1611;49.394;11.136;2023-07-31T08:50:24;22.70;29.80
3198;DHT22;1611;49.394;11.136;2023-07-31T08:52:52;22.80;31.50
3198;DHT22;1611;49.394;11.136;2023-07-31T08:55:20;22.90;31.70
3198;DHT22;1611;49.394;11.136;2023-07-31T08:57:50;22.80;30.20
3198;DHT22;1611;49.394;11.136;2023-07-31T09:00:18;22.90;30.40
3198;DHT22;1611;49.394;11.136;2023-07-31T09:02:50;22.90;31.20
3198;DHT22;1611;49.394;11.136;2023-07-31T09:05:19;22.90;29.70
3198;DHT22;1611;49.394;11.136;2023-07-31T09:07:48;22.80;29.60
3198;DHT22;1611;49.394;11.136;2023-07-31T09:10:16;22.90;31.40
3198;DHT22;1611;49.394;11.136;2023-07-31T09:12:43;22.80;30.40
3198;DHT22;1611;49.394;11.136;2023-07-31T09:15:11;22.90;30.80
3198;DHT22;1611;49.394;11.136;2023-07-31T09:17:38;22.90;32.30
3198;DHT22;1611;49.394;11.136;2023-07-31T09:20:16;23.00;31.90
3198;DHT22;1611;49.394;11.136;2023-07-31T09:22:43;23.20;28.30
3198;DHT22;1611;49.394;11.136;2023-07-31T09:25:19;23.30;32.00
3198;DHT22;1611;49.394;11.136;2023-07-31T09:27:48;23.40;30.10
3198;DHT22;1611;49.394;11.136;2023-07-31T09:30:15;23.40;29.50
3198;DHT22;1611;49.394;11.136;2023-07-31T09:32:43;23.50;28.20
3198;DHT22;1611;49.394;11.136;2023-07-31T09:35:14;23.70;29.30
3198;DHT22;1611;49.394;11.136;2023-07-31T09:37:48;24.10;28.80
3198;DHT22;1611;49.394;11.136;2023-07-31T09:40:27;24.30;27.20
3198;DHT22;1611;49.394;11.136;2023-07-31T09:42:56;24.50;28.50
3198;DHT22;1611;49.394;11.136;2023-07-31T09:45:29;24.70;25.90
3198;DHT22;1611;49.394;11.136;2023-07-31T09:47:57;24.80;25.20
3198;DHT22;1611;49.394;11.136;2023-07-31T09:50:24;24.90;27.90
3198;DHT22;1611;49.394;11.136;2023-07-31T09:52:52;25.00;26.60
3198;DHT22;1611;49.394;11.136;2023-07-31T09:55:19;24.60;24.70
3198;DHT22;1611;49.394;11.136;2023-07-31T09:57:48;24.40;24.20
3198;DHT22;1611;49.394;11.136;2023-07-31T10:00:18;24.30;26.20
3198;DHT22;1611;49.394;11.136;2023-07-31T10:02:47;24.50;26.60
3198;DHT22;1611;49.394;11.136;2023-07-31T10:05:15;24.60;26.30
3198;DHT22;1611;49.394;11.136;2023-07-31T10:07:45;24.60;27.80
3198;DHT22;1611;49.394;11.136;2023-07-31T10:10:15;24.50;27.00
3198;DHT22;1611;49.394;11.136;2023-07-31T10:12:44;24.70;27.40
3198;DHT22;1611;49.394;11.136;2023-07-31T10:15:14;25.00;26.50
3198;DHT22;1611;49.394;11.136;2023-07-31T10:17:42;25.00;24.90
3198;DHT22;1611;49.394;11.136;2023-07-31T10:20:10;25.30;26.60
3198;DHT22;1611;49.394;11.136;2023-07-31T10:22:37;25.50;24.50
3198;DHT22;1611;49.394;11.136;2023-07-31T10:25:08;25.40;23.60
3198;DHT22;1611;49.394;11.136;2023-07-31T10:27:36;25.10;26.20
3198;DHT22;1611;49.394;11.136;2023-07-31T10:30:06;24.70;24.90
3198;DHT22;1611;49.394;11.136;2023-07-31T10:32:38;24.50;26.40
3198;DHT22;1611;49.394;11.136;2023-07-31T10:35:07;24.60;26.30
3198;DHT22;1611;49.394;11.136;2023-07-31T10:37:36;24.70;27.90
3198;DHT22;1611;49.394;11.136;2023-07-31T10:40:05;24.70;26.10
3198;DHT22;1611;49.394;11.136;2023-07-31T10:42:33;24.70;27.00
3198;DHT22;1611;49.394;11.136;2023-07-31T10:45:03;24.90;26.70
3198;DHT22;1611;49.394;11.136;2023-07-31T10:47:30;25.10;26.40
3198;DHT22;1611;49.394;11.136;2023-07-31T10:50:20;25.30;25.40
3198;DHT22;1611;49.394;11.136;2023-07-31T10:52:48;25.50;26.30
3198;DHT22;1611;49.394;11.136;2023-07-31T10:55:25;25.80;25.20
3198;DHT22;1611;49.394;11.136;2023-07-31T10:57:53;25.90;24.80
3198;DHT22;1611;49.394;11.136;2023-07-31T11:00:22;26.20;24.10
3198;DHT22;1611;49.394;11.136;2023-07-31T11:02:59;26.20;23.30
3198;DHT22;1611;49.394;11.136;2023-07-31T11:05:50;25.90;23.30
3198;DHT22;1611;49.394;11.136;2023-07-31T11:08:20;26.00;23.70
3198;DHT22;1611;49.394;11.136;2023-07-31T11:10:49;26.00;23.90
3198;DHT22;1611;49.394;11.136;2023-07-31T11:13:17;25.80;24.20
3198;DHT22;1611;49.394;11.136;2023-07-31T11:15:43;25.50;23.70
3198;DHT22;1611;49.394;11.136;2023-07-31T11:18:10;25.50;25.00
3198;DHT22;1611;49.394;11.136;2023-07-31T11:20:38;25.40;26.20
3198;DHT22;1611;49.394;11.136;2023-07-31T11:23:08;25.40;26.10
3198;DHT22;1611;49.394;11.136;2023-07-31T11:25:37;25.30;24.70
3198;DHT22;1611;49.394;11.136;2023-07-31T11:28:06;25.30;26.10
3198;DHT22;1611;49.394;11.136;2023-07-31T11:30:33;25.30;27.00
3198;DHT22;1611;49.394;11.136;2023-07-31T11:33:02;25.40;25.90
3198;DHT22;1611;49.394;11.136;2023-07-31T11:35:30;25.50;25.40
3198;DHT22;1611;49.394;11.136;2023-07-31T11:37:57;25.30;25.40
3198;DHT22;1611;49.394;11.136;2023-07-31T11:40:25;25.10;26.10
3198;DHT22;1611;49.394;11.136;2023-07-31T11:42:58;25.00;27.10
3198;DHT22;1611;49.394;11.136;2023-07-31T11:45:26;24.90;27.40
3198;DHT22;1611;49.394;11.136;2023-07-31T11:47:54;24.90;27.30
3198;DHT22;1611;49.394;11.136;2023-07-31T11:50:22;24.80;25.70
3198;DHT22;1611;49.394;11.136;2023-07-31T11:52:53;24.80;28.20
3198;DHT22;1611;49.394;11.136;2023-07-31T11:55:21;24.70;27.70
3198;DHT22;1611;49.394;11.136;2023-07-31T11:57:51;24.50;28.30
3198;DHT22;1611;49.394;11.136;2023-07-31T12:00:18;24.40;29.20
3198;DHT22;1611;49.394;11.136;2023-07-31T12:02:46;24.20;29.90
3198;DHT22;1611;49.394;11.136;2023-07-31T12:05:13;24.20;30.70
3198;DHT22;1611;49.394;11.136;2023-07-31T12:07:49;24.40;30.90
3198;DHT22;1611;49.394;11.136;2023-07-31T12:10:25;24.60;29.90
3198;DHT22;1611;49.394;11.136;2023-07-31T12:13:04;24.50;30.70
3198;DHT22;1611;49.394;11.136;2023-07-31T12:15:39;24.40;30.00
3198;DHT22;1611;49.394;11.136;2023-07-31T12:18:08;24.20;29.40
3198;DHT22;1611;49.394;11.136;2023-07-31T12:20:40;24.00;32.50
3198;DHT22;1611;49.394;11.136;2023-07-31T12:23:07;23.80;30.20
3198;DHT22;1611;49.394;11.136;2023-07-31T12:25:34;23.70;31.90
3198;DHT22;1611;49.394;11.136;2023-07-31T12:28:06;23.70;30.60
3198;DHT22;1611;49.394;11.136;2023-07-31T12:30:37;23.70;31.80
3198;DHT22;1611;49.394;11.136;2023-07-31T12:33:05;23.80;31.10
3198;DHT22;1611;49.394;11.136;2023-07-31T12:35:37;23.80;31.60
3198;DHT22;1611;49.394;11.136;2023-07-31T12:38:04;23.90;28.30
3198;DHT22;1611;49.394;11.136;2023-07-31T12:40:31;24.30;27.80
3198;DHT22;1611;49.394;11.136;2023-07-31T12:42:57;24.90;26.70
3198;DHT22;1611;49.394;11.136;2023-07-31T12:45:26;25.40;25.60
3198;DHT22;1611;49.394;11.136;2023-07-31T12:47:53;26.00;23.60
3198;DHT22;1611;49.394;11.136;2023-07-31T12:50:19;26.60;22.30
3198;DHT22;1611;49.394;11.136;2023-07-31T12:52:46;27.20;21.50
3198;DHT22;1611;49.394;11.136;2023-07-31T12:55:13;28.20;20.90
3198;DHT22;1611;49.394;11.136;2023-07-31T12:57:40;28.20;19.30
3198;DHT22;1611;49.394;11.136;2023-07-31T13:00:08;28.10;19.70
3198;DHT22;1611;49.394;11.136;2023-07-31T13:02:36;27.60;17.60
3198;DHT22;1611;49.394;11.136;2023-07-31T13:05:03;27.30;19.30
3198;DHT22;1611;49.394;11.136;2023-07-31T13:07:30;27.00;21.00
3198;DHT22;1611;49.394;11.136;2023-07-31T13:09:57;26.80;20.70
3198;DHT22;1611;49.394;11.136;2023-07-31T13:12:24;26.60;20.30
3198;DHT22;1611;49.394;11.136;2023-07-31T13:14:51;26.40;22.00
3198;DHT22;1611;49.394;11.136;2023-07-31T13:17:18;26.40;21.30
3198;DHT22;1611;49.394;11.136;2023-07-31T13:19:46;26.40;21.20
3198;DHT22;1611;49.394;11.136;2023-07-31T13:22:13;26.30;20.80
3198;DHT22;1611;49.394;11.136;2023-07-31T13:24:39;26.40;21.90
3198;DHT22;1611;49.394;11.136;2023-07-31T13:27:06;26.50;22.20
3198;DHT22;1611;49.394;11.136;2023-07-31T13:29:33;26.60;20.10
3198;DHT22;1611;49.394;11.136;2023-07-31T13:31:59;26.80;21.10
3198;DHT22;1611;49.394;11.136;2023-07-31T13:34:26;27.10;21.10
3198;DHT22;1611;49.394;11.136;2023-07-31T13:36:55;27.90;19.50
3198;DHT22;1611;49.394;11.136;2023-07-31T13:39:22;28.60;17.60
3198;DHT22;1611;49.394;11.136;2023-07-31T13:41:49;29.20;18.30
3198;DHT22;1611;49.394;11.136;2023-07-31T13:44:15;29.70;16.50
3198;DHT22;1611;49.394;11.136;2023-07-31T13:46:42;29.70;15.40
3198;DHT22;1611;49.394;11.136;2023-07-31T13:49:09;30.30;15.60
3198;DHT22;1611;49.394;11.136;2023-07-31T13:51:36;30.50;14.40
3198;DHT22;1611;49.394;11.136;2023-07-31T13:54:06;30.20;15.80
3198;DHT22;1611;49.394;11.136;2023-07-31T13:56:33;29.70;16.50
3198;DHT22;1611;49.394;11.136;2023-07-31T13:59:00;29.50;16.80
3198;DHT22;1611;49.394;11.136;2023-07-31T14:01:27;29.40;16.60
3198;DHT22;1611;49.394;11.136;2023-07-31T14:03:54;29.10;17.30
3198;DHT22;1611;49.394;11.136;2023-07-31T14:06:21;29.20;17.70
3198;DHT22;1611;49.394;11.136;2023-07-31T14:08:47;28.90;17.10
3198;DHT22;1611;49.394;11.136;2023-07-31T14:11:15;28.50;18.10
3198;DHT22;1611;49.394;11.136;2023-07-31T14:13:42;28.30;18.60
3198;DHT22;1611;49.394;11.136;2023-07-31T14:16:09;28.30;18.70
3198;DHT22;1611;49.394;11.136;2023-07-31T14:18:36;28.20;19.30
3198;DHT22;1611;49.394;11.136;2023-07-31T14:21:03;28.50;17.70
3198;DHT22;1611;49.394;11.136;2023-07-31T14:23:29;29.00;18.20
3198;DHT22;1611;49.394;11.136;2023-07-31T14:25:56;29.30;14.70
3198;DHT22;1611;49.394;11.136;2023-07-31T14:28:24;29.20;17.00
3198;DHT22;1611;49.394;11.136;2023-07-31T14:30:51;28.80;17.10
3198;DHT22;1611;49.394;11.136;2023-07-31T14:33:18;28.20;17.50
3198;DHT22;1611;49.394;11.136;2023-07-31T14:35:44;27.60;17.80
3198;DHT22;1611;49.394;11.136;2023-07-31T14:38:11;27.20;19.40
3198;DHT22;1611;49.394;11.136;2023-07-31T14:40:38;26.70;19.20
3198;DHT22;1611;49.394;11.136;2023-07-31T14:43:05;26.40;21.50
3198;DHT22;1611;49.394;11.136;2023-07-31T14:45:33;26.30;22.20
3198;DHT22;1611;49.394;11.136;2023-07-31T14:48:00;26.10;21.30
3198;DHT22;1611;49.394;11.136;2023-07-31T14:50:27;26.00;22.80
3198;DHT22;1611;49.394;11.136;2023-07-31T14:52:53;25.80;22.40
3198;DHT22;1611;49.394;11.136;2023-07-31T14:55:20;25.70;22.70
3198;DHT22;1611;49.394;11.136;2023-07-31T14:57:47;25.40;21.60
3198;DHT22;1611;49.394;11.136;2023-07-31T15:00:14;25.20;22.80
3198;DHT22;1611;49.394;11.136;2023-07-31T15:02:43;24.90;23.50
3198;DHT22;1611;49.394;11.136;2023-07-31T15:05:09;24.80;25.40
3198;DHT22;1611;49.394;11.136;2023-07-31T15:07:36;24.60;23.90
3198;DHT22;1611;49.394;11.136;2023-07-31T15:10:04;24.50;25.20
3198;DHT22;1611;49.394;11.136;2023-07-31T15:12:32;24.40;25.30
3198;DHT22;1611;49.394;11.136;2023-07-31T15:14:58;24.30;26.50
3198;DHT22;1611;49.394;11.136;2023-07-31T15:17:25;24.20;25.80
3198;DHT22;1611;49.394;11.136;2023-07-31T15:19:53;24.10;27.50
3198;DHT22;1611;49.394;11.136;2023-07-31T15:22:20;24.00;29.70
3198;DHT22;1611;49.394;11.136;2023-07-31T15:24:47;23.90;31.00
3198;DHT22;1611;49.394;11.136;2023-07-31T15:27:14;23.80;31.50
3198;DHT22;1611;49.394;11.136;2023-07-31T15:29:41;23.70;32.70
3198;DHT22;1611;49.394;11.136;2023-07-31T15:32:09;23.50;33.00
3198;DHT22;1611;49.394;11.136;2023-07-31T15:34:35;23.40;33.70
3198;DHT22;1611;49.394;11.136;2023-07-31T15:37:04;23.30;33.20
3198;DHT22;1611;49.394;11.136;2023-07-31T15:39:31;23.20;33.60
3198;DHT22;1611;49.394;11.136;2023-07-31T15:41:57;23.20;33.70
3198;DHT22;1611;49.394;11.136;2023-07-31T15:44:24;23.20;32.50
3198;DHT22;1611;49.394;11.136;2023-07-31T15:46:51;23.10;34.50
3198;DHT22;1611;49.394;11.136;2023-07-31T15:49:18;23.10;35.20